sensor_id;sensor_type;location;lat;lon;timestamp;P1;durP1;ratioP1;P2;durP2;ratioP2
39782;SDS011;25462;51.164;17.100;2023-07-29T00:04:49;7.70;;;4.10;;
39782;SDS011;25462;51.164;17.100;2023-07-29T00:09:53;7.90;;;4.40;;
39782;SDS011;25462;51.164;17.100;2023-07-29T00:14:57;5.10;;;4.10;;
39782;SDS011;25462;51.164;17.100;2023-07-29T00:20:01;6.40;;;4.50;;
39782;SDS011;25462;51.164;17.100;2023-07-29T00:25:08;6.80;;;4.90;;
39782;SDS011;25462;51.164;17.100;2023-07-29T00:30:11;5.80;;;4.90;;
39782;SDS011;25462;51.164;17.100;2023-07-29T00:35:15;7.90;;;5.50;;
39782;SDS011;25462;51.164;17.100;2023-07-29T00:40:20;8.20;;;6.20;;
39782;SDS011;25462;51.164;17.100;2023-07-29T00:45:24;6.90;;;5.60;;
39782;SDS011;25462;51.164;17.100;2023-07-29T00:50:29;9.50;;;5.80;;
39782;SDS011;25462;51.164;17.100;2023-07-29T00:55:36;7.60;;;4.60;;
39782;SDS011;25462;51.164;17.100;2023-07-29T02:23:31;4.80;;;3.20;;
39782;SDS011;25462;51.164;17.100;2023-07-29T02:28:58;7.90;;;3.70;;
39782;SDS011;25462;51.164;17.100;2023-07-29T02:34:17;10.00;;;4.60;;
39782;SDS011;25462;51.164;17.100;2023-07-29T02:39:34;10.30;;;3.60;;
39782;SDS011;25462;51.164;17.100;2023-07-29T02:44:45;4.60;;;3.30;;
39782;SDS011;25462;51.164;17.100;2023-07-29T02:50:13;3.90;;;3.00;;
39782;SDS011;25462;51.164;17.100;2023-07-29T02:55:27;6.00;;;3.80;;
39782;SDS011;25462;51.164;17.100;2023-07-29T03:00:32;5.10;;;3.60;;
39782;SDS011;25462;51.164;17.100;2023-07-29T03:05:42;5.40;;;4.00;;
39782;SDS011;25462;51.164;17.100;2023-07-29T03:10:51;4.80;;;3.70;;
39782;SDS011;25462;51.164;17.100;2023-07-29T06:14:38;3.90;;;2.20;;
39782;SDS011;25462;51.164;17.100;2023-07-29T07:28:07;3.70;;;1.60;;
39782;SDS011;25462;51.164;17.100;2023-07-29T07:58:50;2.30;;;1.50;;
39782;SDS011;25462;51.164;17.100;2023-07-29T08:04:40;4.00;;;1.60;;
39782;SDS011;25462;51.164;17.100;2023-07-29T08:10:26;4.40;;;1.70;;
39782;SDS011;25462;51.164;17.100;2023-07-29T08:34:14;6.40;;;1.80;;
39782;SDS011;25462;51.164;17.100;2023-07-29T08:39:48;2.70;;;1.80;;
39782;SDS011;25462;51.164;17.100;2023-07-29T09:03:40;2.30;;;1.50;;
39782;SDS011;25462;51.164;17.100;2023-07-29T09:32:20;3.70;;;2.00;;
39782;SDS011;25462;51.164;17.100;2023-07-29T09:37:29;2.30;;;2.10;;
39782;SDS011;25462;51.164;17.100;2023-07-29T09:42:34;2.30;;;1.50;;
39782;SDS011;25462;51.164;17.100;2023-07-29T09:47:42;2.80;;;1.40;;
39782;SDS011;25462;51.164;17.100;2023-07-29T09:53:25;4.30;;;1.40;;
39782;SDS011;25462;51.164;17.100;2023-07-29T10:04:50;2.40;;;1.30;;
39782;SDS011;25462;51.164;17.100;2023-07-29T10:22:09;3.80;;;1.40;;
39782;SDS011;25462;51.164;17.100;2023-07-29T10:27:38;2.00;;;1.40;;
39782;SDS011;25462;51.164;17.100;2023-07-29T10:39:00;2.60;;;1.40;;
39782;SDS011;25462;51.164;17.100;2023-07-29T10:50:37;3.60;;;1.70;;
39782;SDS011;25462;51.164;17.100;2023-07-29T10:56:08;3.80;;;2.20;;
39782;SDS011;25462;51.164;17.100;2023-07-29T11:01:50;4.50;;;2.20;;
39782;SDS011;25462;51.164;17.100;2023-07-29T11:13:57;5.70;;;2.50;;
39782;SDS011;25462;51.164;17.100;2023-07-29T11:19:44;4.70;;;2.50;;
39782;SDS011;25462;51.164;17.100;2023-07-29T11:31:10;3.50;;;2.50;;
39782;SDS011;25462;51.164;17.100;2023-07-29T11:36:45;3.00;;;2.50;;
39782;SDS011;25462;51.164;17.100;2023-07-29T11:47:57;3.90;;;2.80;;
39782;SDS011;25462;51.164;17.100;2023-07-29T11:53:07;2.50;;;2.30;;
39782;SDS011;25462;51.164;17.100;2023-07-29T11:58:22;3.70;;;2.30;;
39782;SDS011;25462;51.164;17.100;2023-07-29T12:03:40;3.10;;;2.10;;
39782;SDS011;25462;51.164;17.100;2023-07-29T12:09:05;3.60;;;2.00;;
39782;SDS011;25462;51.164;17.100;2023-07-29T12:14:42;2.30;;;1.80;;
39782;SDS011;25462;51.164;17.100;2023-07-29T12:21:14;2.90;;;2.00;;
39782;SDS011;25462;51.164;17.100;2023-07-29T12:27:00;2.70;;;1.80;;
39782;SDS011;25462;51.164;17.100;2023-07-29T12:38:27;3.50;;;1.70;;
39782;SDS011;25462;51.164;17.100;2023-07-29T12:44:17;3.20;;;1.60;;
39782;SDS011;25462;51.164;17.100;2023-07-29T12:55:10;11.70;;;4.90;;
39782;SDS011;25462;51.164;17.100;2023-07-29T13:01:02;1.90;;;1.40;;
39782;SDS011;25462;51.164;17.100;2023-07-29T13:06:46;3.40;;;1.70;;
39782;SDS011;25462;51.164;17.100;2023-07-29T13:12:35;3.50;;;1.40;;
39782;SDS011;25462;51.164;17.100;2023-07-29T13:17:52;3.30;;;1.50;;
39782;SDS011;25462;51.164;17.100;2023-07-29T13:23:22;2.20;;;1.50;;
39782;SDS011;25462;51.164;17.100;2023-07-29T13:28:27;2.60;;;1.50;;
39782;SDS011;25462;51.164;17.100;2023-07-29T13:34:01;3.40;;;2.10;;
39782;SDS011;25462;51.164;17.100;2023-07-29T13:39:06;2.00;;;1.40;;
39782;SDS011;25462;51.164;17.100;2023-07-29T13:44:36;5.10;;;1.50;;
39782;SDS011;25462;51.164;17.100;2023-07-29T13:50:02;2.60;;;1.40;;
39782;SDS011;25462;51.164;17.100;2023-07-29T13:55:36;2.40;;;1.50;;
39782;SDS011;25462;51.164;17.100;2023-07-29T14:01:19;2.70;;;1.40;;
39782;SDS011;25462;51.164;17.100;2023-07-29T14:06:56;3.10;;;1.40;;
39782;SDS011;25462;51.164;17.100;2023-07-29T14:25:00;2.60;;;1.40;;
39782;SDS011;25462;51.164;17.100;2023-07-29T14:37:29;2.60;;;1.60;;
39782;SDS011;25462;51.164;17.100;2023-07-29T14:42:59;2.60;;;1.40;;
39782;SDS011;25462;51.164;17.100;2023-07-29T14:48:25;2.70;;;1.50;;
39782;SDS011;25462;51.164;17.100;2023-07-29T14:54:42;2.00;;;1.40;;
39782;SDS011;25462;51.164;17.100;2023-07-29T14:59:59;1.60;;;1.20;;
39782;SDS011;25462;51.164;17.100;2023-07-29T15:05:31;2.20;;;1.40;;
39782;SDS011;25462;51.164;17.100;2023-07-29T15:11:54;2.20;;;1.40;;
39782;SDS011;25462;51.164;17.100;2023-07-29T16:19:51;2.80;;;1.30;;
39782;SDS011;25462;51.164;17.100;2023-07-29T16:26:14;2.30;;;1.50;;
39782;SDS011;25462;51.164;17.100;2023-07-29T16:32:32;1.90;;;1.50;;
39782;SDS011;25462;51.164;17.100;2023-07-29T16:51:26;5.50;;;1.40;;
39782;SDS011;25462;51.164;17.100;2023-07-29T16:57:53;5.80;;;1.40;;
39782;SDS011;25462;51.164;17.100;2023-07-29T19:35:12;4.40;;;1.50;;
39782;SDS011;25462;51.164;17.100;2023-07-29T20:57:26;6.00;;;1.50;;
39782;SDS011;25462;51.164;17.100;2023-07-29T23:37:26;6.90;;;4.30;;
